Time;durP1;ratioP1;P1;durP2;ratioP2;P2;SDS_P1;SDS_P2;PMS_P1;PMS_P2;Temp;Humidity;BMP_temperature;BMP_pressure;BME280_temperature;BME280_humidity;BME280_pressure;Samples;Min_cycle;Max_cycle;Signal;HPM_P1;HPM_P2
2023/02/27 00:00:19;;;;;;;3.50;1.45;;;-3.50;99.90;;;;;;2068392;28;20701;-67
2023/02/27 00:01:21;;;;;;;1.90;1.50;;;-3.50;99.90;;;;;;2067792;28;20197;-66
2023/02/27 00:02:26;;;;;;;2.78;1.58;;;-3.50;99.80;;;;;;2066469;28;20192;-67
2023/02/27 00:03:32;;;;;;;1.77;1.50;;;-3.50;99.90;;;;;;2068748;28;20195;-67
2023/02/27 00:04:37;;;;;;;2.10;1.40;;;-3.50;99.90;;;;;;2068315;28;20192;-67
2023/02/27 00:05:43;;;;;;;2.30;1.30;;;-3.40;99.90;;;;;;2068179;28;20235;-67
2023/02/27 00:06:48;;;;;;;1.30;1.17;;;-3.50;99.90;;;;;;2063976;28;20225;-67
2023/02/27 00:07:54;;;;;;;2.00;1.77;;;-3.50;99.90;;;;;;2050039;28;20227;-66
2023/02/27 00:08:59;;;;;;;3.95;1.77;;;-3.60;99.90;;;;;;2060866;28;20187;-67
2023/02/27 00:10:06;;;;;;;2.45;1.27;;;-3.60;99.90;;;;;;2060885;28;20676;-67
2023/02/27 00:11:09;;;;;;;2.10;1.48;;;-3.60;99.90;;;;;;2063009;28;20186;-66
2023/02/27 00:12:15;;;;;;;3.08;1.75;;;-3.60;99.90;;;;;;2069749;28;20188;-67
2023/02/27 00:13:20;;;;;;;3.00;1.75;;;-3.60;99.90;;;;;;2070161;28;20677;-67
2023/02/27 00:14:26;;;;;;;1.98;1.38;;;-3.50;99.90;;;;;;2069643;28;20567;-67
2023/02/27 00:15:32;;;;;;;1.95;1.77;;;-3.50;99.90;;;;;;2069236;28;20283;-67
2023/02/27 00:16:37;;;;;;;2.67;1.63;;;-3.50;99.90;;;;;;2065806;28;20186;-66
2023/02/27 00:17:43;;;;;;;1.90;1.27;;;-3.50;99.90;;;;;;2068837;28;20197;-66
2023/02/27 00:18:48;;;;;;;1.92;1.70;;;-3.60;99.90;;;;;;2069843;28;20725;-67
2023/02/27 00:19:53;;;;;;;3.00;1.67;;;-3.60;99.90;;;;;;2070364;28;20569;-66
2023/02/27 00:20:58;;;;;;;1.80;1.60;;;-3.60;99.90;;;;;;2070477;28;20180;-67
2023/02/27 00:22:04;;;;;;;3.17;1.60;;;-3.60;99.90;;;;;;2069917;28;20268;-67
2023/02/27 00:23:09;;;;;;;1.67;1.25;;;-3.60;99.90;;;;;;2069965;28;20665;-67
2023/02/27 00:24:15;;;;;;;2.42;1.40;;;-3.60;99.90;;;;;;2069878;28;20277;-66
2023/02/27 00:25:20;;;;;;;1.77;1.67;;;-3.70;99.90;;;;;;2066735;28;20226;-66
2023/02/27 00:26:26;;;;;;;1.83;1.40;;;-3.70;99.90;;;;;;2069738;28;20260;-67
2023/02/27 00:27:31;;;;;;;3.70;1.55;;;-3.70;99.90;;;;;;2070222;28;20199;-67
2023/02/27 00:28:37;;;;;;;1.77;1.20;;;-3.70;99.90;;;;;;2070386;28;20192;-67
2023/02/27 00:29:42;;;;;;;1.88;1.60;;;-3.50;99.90;;;;;;2070691;28;20187;-67
2023/02/27 00:30:48;;;;;;;1.83;1.45;;;-3.50;99.90;;;;;;2066313;28;20211;-67
2023/02/27 00:31:53;;;;;;;2.05;1.42;;;-3.50;99.90;;;;;;2069811;28;20850;-67
2023/02/27 00:32:59;;;;;;;1.98;1.63;;;-3.50;99.90;;;;;;2069066;28;20705;-67
2023/02/27 00:34:04;;;;;;;2.97;1.67;;;-3.50;99.90;;;;;;2066265;28;20203;-67
2023/02/27 00:35:10;;;;;;;1.50;1.40;;;-3.60;99.90;;;;;;2069673;28;20594;-67
2023/02/27 00:36:15;;;;;;;2.80;1.58;;;-3.60;99.90;;;;;;2070217;28;20541;-67
2023/02/27 00:37:20;;;;;;;2.92;1.50;;;-3.70;99.90;;;;;;2070378;28;20188;-66
2023/02/27 00:38:27;;;;;;;1.45;1.35;;;-3.70;99.90;;;;;;2069609;28;20190;-67
2023/02/27 00:39:31;;;;;;;1.55;1.45;;;-3.60;99.90;;;;;;2068680;28;20800;-66
2023/02/27 00:40:37;;;;;;;2.30;1.65;;;-3.60;99.90;;;;;;2069273;28;20738;-67
2023/02/27 00:41:43;;;;;;;1.88;1.60;;;-3.60;99.90;;;;;;2069725;28;20241;-67
2023/02/27 00:42:48;;;;;;;2.60;1.80;;;-3.70;99.90;;;;;;2058106;28;20293;-67
2023/02/27 00:43:54;;;;;;;3.42;1.50;;;-3.70;99.90;;;;;;2060925;28;20674;-66
2023/02/27 00:44:59;;;;;;;2.33;1.65;;;-3.60;99.90;;;;;;2070019;28;20607;-67
2023/02/27 00:46:05;;;;;;;3.15;1.60;;;-3.60;99.90;;;;;;2070260;28;20242;-67
2023/02/27 00:47:09;;;;;;;1.67;1.50;;;-3.60;99.90;;;;;;2069800;28;20180;-67
2023/02/27 00:48:15;;;;;;;2.22;1.50;;;-3.60;99.90;;;;;;2066035;28;20196;-66
2023/02/27 00:49:20;;;;;;;1.70;1.30;;;-3.60;99.90;;;;;;2070689;28;20203;-66
2023/02/27 00:50:26;;;;;;;2.40;1.77;;;-3.70;99.90;;;;;;2065919;28;20259;-66
2023/02/27 00:51:31;;;;;;;2.03;1.75;;;-3.60;99.90;;;;;;2068096;28;20192;-67
2023/02/27 00:52:37;;;;;;;2.20;1.83;;;-3.60;99.90;;;;;;2070424;28;20196;-68
2023/02/27 00:53:42;;;;;;;2.85;1.83;;;-3.60;99.90;;;;;;2057541;28;20826;-67
2023/02/27 00:54:48;;;;;;;1.60;1.30;;;-3.60;99.90;;;;;;2054857;28;20303;-66
2023/02/27 00:55:53;;;;;;;4.30;1.90;;;-3.50;99.90;;;;;;2069160;28;20284;-67
2023/02/27 00:56:59;;;;;;;3.45;1.60;;;-3.60;99.90;;;;;;2066480;28;20195;-67
2023/02/27 00:58:04;;;;;;;2.58;1.77;;;-3.60;99.90;;;;;;2068960;28;20180;-67
2023/02/27 00:59:09;;;;;;;3.63;1.90;;;-3.60;99.90;;;;;;2069741;28;20234;-67
2023/02/27 01:00:15;;;;;;;1.73;1.58;;;-3.70;99.90;;;;;;2066616;28;20199;-67
2023/02/27 01:01:21;;;;;;;2.25;1.55;;;-3.60;99.90;;;;;;2061116;28;20197;-66
2023/02/27 01:02:27;;;;;;;2.88;1.75;;;-3.60;99.90;;;;;;2062305;28;20619;-66
2023/02/27 01:03:31;;;;;;;3.40;1.92;;;-3.50;99.90;;;;;;2061628;28;20198;-67
2023/02/27 01:04:37;;;;;;;2.00;1.63;;;-3.50;99.90;;;;;;2062799;28;20189;-67
2023/02/27 01:05:42;;;;;;;2.15;1.58;;;-3.60;99.90;;;;;;2069026;28;20207;-66
2023/02/27 01:06:48;;;;;;;2.28;1.50;;;-3.50;99.90;;;;;;2069010;28;20200;-66
2023/02/27 01:07:54;;;;;;;3.17;1.88;;;-3.50;99.90;;;;;;2060505;28;20685;-67
2023/02/27 01:08:59;;;;;;;2.45;1.80;;;-3.50;99.90;;;;;;2051272;28;20192;-67
2023/02/27 01:10:06;;;;;;;3.22;1.67;;;-3.50;99.90;;;;;;2068766;28;20263;-66
2023/02/27 01:11:09;;;;;;;3.65;1.60;;;-3.80;99.90;;;;;;2068975;28;20176;-67
2023/02/27 01:12:15;;;;;;;3.42;1.70;;;-3.80;99.90;;;;;;2065353;28;20242;-67
2023/02/27 01:13:21;;;;;;;1.90;1.55;;;-3.80;99.90;;;;;;2069545;28;20215;-66
2023/02/27 01:14:26;;;;;;;2.92;1.80;;;-3.90;99.90;;;;;;2068795;28;20187;-68
2023/02/27 01:15:31;;;;;;;2.92;1.60;;;-3.90;99.90;;;;;;2051885;28;20205;-67
2023/02/27 01:16:37;;;;;;;3.13;1.77;;;-3.80;99.90;;;;;;2065044;28;20271;-67
2023/02/27 01:17:43;;;;;;;2.10;1.80;;;-3.70;99.90;;;;;;2068888;28;20232;-66
2023/02/27 01:18:48;;;;;;;2.63;1.90;;;-3.70;99.90;;;;;;2069496;28;20986;-67
2023/02/27 01:19:53;;;;;;;2.65;1.67;;;-3.80;99.90;;;;;;2069609;28;20561;-66
2023/02/27 01:20:59;;;;;;;2.03;1.55;;;-3.80;99.90;;;;;;2068967;28;20597;-67
2023/02/27 01:22:04;;;;;;;2.33;1.80;;;-3.80;99.90;;;;;;2069157;28;20194;-67
2023/02/27 01:23:09;;;;;;;1.88;1.67;;;-3.80;99.90;;;;;;2069545;28;20186;-67
2023/02/27 01:24:15;;;;;;;3.45;1.60;;;-3.80;99.90;;;;;;2069272;28;20246;-66
2023/02/27 01:25:20;;;;;;;2.42;1.50;;;-3.80;99.90;;;;;;2069300;28;20184;-67
2023/02/27 01:26:26;;;;;;;3.42;2.00;;;-3.70;99.90;;;;;;2070178;28;20185;-67
2023/02/27 01:27:31;;;;;;;2.15;1.52;;;-3.80;99.90;;;;;;2065678;28;20628;-67
2023/02/27 01:28:37;;;;;;;2.60;1.88;;;-3.80;99.90;;;;;;2069189;28;20199;-66
2023/02/27 01:29:42;;;;;;;1.85;1.65;;;-3.80;99.90;;;;;;2069171;28;20192;-67
2023/02/27 01:30:48;;;;;;;4.50;1.90;;;-3.80;99.90;;;;;;2066208;28;20264;-67
2023/02/27 01:31:53;;;;;;;2.58;1.83;;;-3.90;99.90;;;;;;2068758;28;20261;-66
2023/02/27 01:32:59;;;;;;;4.53;1.88;;;-3.90;99.90;;;;;;2068847;28;20186;-67
2023/02/27 01:34:04;;;;;;;2.33;1.60;;;-3.80;99.90;;;;;;2066252;28;20658;-67
2023/02/27 01:35:09;;;;;;;2.20;1.67;;;-3.80;99.90;;;;;;2069409;28;20223;-66
2023/02/27 01:36:15;;;;;;;2.30;1.50;;;-3.80;99.90;;;;;;2069747;28;20209;-66
2023/02/27 01:37:20;;;;;;;2.38;1.70;;;-3.80;99.90;;;;;;2070057;28;20200;-66
2023/02/27 01:38:26;;;;;;;2.50;1.60;;;-3.70;99.90;;;;;;2069357;28;20199;-66
2023/02/27 01:39:31;;;;;;;3.20;1.50;;;-3.80;99.90;;;;;;2069566;28;20237;-67
2023/02/27 01:40:39;;;;;;;3.03;1.73;;;-3.80;99.90;;;;;;2069652;28;20205;-67
2023/02/27 01:41:43;;;;;;;2.45;1.80;;;-3.80;99.90;;;;;;2069392;28;20192;-67
2023/02/27 01:42:49;;;;;;;3.25;1.92;;;-3.70;99.90;;;;;;2065748;28;20196;-66
2023/02/27 01:44:03;;;;;;;2.80;1.90;;;-3.80;99.90;;;;;;2069307;28;20188;-67
2023/02/27 01:45:10;;;;;;;2.03;1.77;;;-3.80;99.90;;;;;;2060897;28;20218;-68
2023/02/27 01:46:16;;;;;;;2.15;1.73;;;-3.80;99.90;;;;;;2062740;28;20783;-69
2023/02/27 01:47:22;;;;;;;2.20;1.80;;;-3.80;99.90;;;;;;2070183;28;20247;-67
2023/02/27 01:48:34;;;;;;;1.98;1.67;;;-3.70;99.90;;;;;;2064935;28;20205;-66
2023/02/27 01:49:40;;;;;;;3.05;1.70;;;-3.60;99.90;;;;;;2062835;28;20686;-66
2023/02/27 01:50:54;;;;;;;5.75;1.88;;;-3.50;99.90;;;;;;2058788;28;20321;-67
2023/02/27 01:52:09;;;;;;;1.80;1.50;;;-3.50;99.90;;;;;;2068745;28;20201;-67
2023/02/27 01:53:10;;;;;;;2.42;1.60;;;-3.50;99.90;;;;;;2066743;28;20196;-67
2023/02/27 01:54:20;;;;;;;2.15;1.40;;;-3.60;99.90;;;;;;2069168;28;20193;-68
2023/02/27 01:55:30;;;;;;;2.65;1.80;;;-3.60;99.90;;;;;;2067860;28;20232;-67
2023/02/27 01:56:36;;;;;;;3.35;1.83;;;-3.60;99.90;;;;;;2069664;28;20708;-67
2023/02/27 01:57:45;;;;;;;2.28;1.60;;;-3.70;99.90;;;;;;2064866;28;20185;-67
2023/02/27 01:58:56;;;;;;;2.08;1.65;;;-3.80;99.90;;;;;;2050462;28;20230;-68
2023/02/27 02:00:04;;;;;;;2.33;1.70;;;-3.80;99.90;;;;;;2049860;28;20652;-66
2023/02/27 02:01:10;;;;;;;1.80;1.60;;;-3.80;99.90;;;;;;2069226;28;20726;-67
2023/02/27 02:02:24;;;;;;;2.22;1.73;;;-3.80;99.90;;;;;;2068630;28;20275;-67
2023/02/27 02:03:45;;;;;;;2.72;1.70;;;-3.80;99.90;;;;;;2062879;28;20714;-67
2023/02/27 02:04:52;;;;;;;2.47;1.50;;;-3.90;99.90;;;;;;2067091;28;20211;-67
2023/02/27 02:06:01;;;;;;;1.92;1.73;;;-3.80;99.90;;;;;;2069062;28;20299;-67
2023/02/27 02:07:09;;;;;;;3.17;1.60;;;-3.80;99.90;;;;;;2069162;28;20229;-66
2023/02/27 02:08:20;;;;;;;3.88;2.03;;;-3.70;99.90;;;;;;2069088;28;20198;-67
2023/02/27 02:09:25;;;;;;;2.33;1.63;;;-3.70;99.90;;;;;;2064912;28;20220;-67
2023/02/27 02:10:31;;;;;;;2.63;1.50;;;-3.70;99.90;;;;;;2057778;28;20267;-67
2023/02/27 02:11:35;;;;;;;1.90;1.70;;;-3.70;99.90;;;;;;2065127;28;20202;-66
2023/02/27 02:12:41;;;;;;;4.15;1.55;;;-3.80;99.90;;;;;;2068455;28;20777;-66
2023/02/27 02:13:48;;;;;;;2.25;1.52;;;-3.80;99.90;;;;;;2069485;28;20421;-67
2023/02/27 02:14:51;;;;;;;2.25;1.92;;;-3.80;99.90;;;;;;2065287;28;20221;-67
2023/02/27 02:16:16;;;;;;;4.50;1.75;;;-3.80;99.90;;;;;;2067860;28;20213;-67
2023/02/27 02:17:27;;;;;;;3.15;1.42;;;-3.70;99.90;;;;;;2066834;28;20187;-67
2023/02/27 02:18:59;;;;;;;4.43;1.73;;;-3.70;99.90;;;;;;2059150;28;20193;-67
2023/02/27 02:20:25;;;;;;;2.00;1.60;;;-3.70;99.90;;;;;;2054882;28;20223;-67
2023/02/27 02:22:14;;;;;;;2.20;1.50;;;-3.70;99.90;;;;;;2063061;28;20200;-67
2023/02/27 02:23:47;;;;;;;2.15;1.63;;;-3.70;99.90;;;;;;2066385;28;20213;-68
2023/02/27 02:25:36;;;;;;;4.10;1.90;;;-3.70;99.90;;;;;;2068149;28;20218;-67
2023/02/27 02:27:06;;;;;;;3.25;1.98;;;-3.70;99.90;;;;;;2068113;28;20197;-67
2023/02/27 02:28:49;;;;;;;2.30;1.88;;;-3.70;99.90;;;;;;2067296;28;20666;-67
2023/02/27 02:30:33;;;;;;;2.58;1.60;;;-3.70;99.90;;;;;;2067176;28;20718;-67
2023/02/27 02:31:54;;;;;;;1.98;1.60;;;-3.60;99.90;;;;;;2066646;28;20258;-68
2023/02/27 02:33:40;;;;;;;2.08;1.70;;;-3.60;99.90;;;;;;2066038;28;20191;-67
2023/02/27 02:35:42;;;;;;;2.03;1.50;;;-3.50;99.90;;;;;;2065696;28;20225;-67
2023/02/27 02:37:11;;;;;;;2.05;1.52;;;-3.50;99.90;;;;;;2067275;28;20200;-67
2023/02/27 02:39:01;;;;;;;1.65;1.45;;;-3.70;99.90;;;;;;2066413;28;20693;-67
2023/02/27 02:40:38;;;;;;;4.20;1.67;;;-3.80;99.90;;;;;;2063347;28;20212;-67
2023/02/27 02:41:48;;;;;;;1.52;1.35;;;-3.80;99.90;;;;;;2068070;28;20204;-67
2023/02/27 02:43:36;;;;;;;3.78;1.98;;;-3.90;99.90;;;;;;2069558;28;20188;-67
2023/02/27 02:45:06;;;;;;;3.70;1.80;;;-3.90;99.90;;;;;;2060040;28;20377;-67
2023/02/27 02:46:21;;;;;;;2.67;1.80;;;-3.90;99.90;;;;;;2066643;28;20204;-67
2023/02/27 02:47:51;;;;;;;2.40;1.80;;;-4.00;99.90;;;;;;2066343;28;20195;-66
2023/02/27 02:49:24;;;;;;;2.88;2.00;;;-4.10;99.90;;;;;;2067537;28;20195;-69
2023/02/27 02:50:37;;;;;;;5.28;1.65;;;-4.10;99.90;;;;;;2065105;28;20318;-67
2023/02/27 02:51:59;;;;;;;3.00;1.70;;;-4.10;99.90;;;;;;2068160;28;20216;-67
2023/02/27 02:53:39;;;;;;;1.80;1.50;;;-4.00;99.90;;;;;;2061441;28;20272;-67
2023/02/27 02:55:05;;;;;;;2.42;1.60;;;-3.90;99.90;;;;;;2065768;28;20217;-67
2023/02/27 02:56:31;;;;;;;3.25;1.88;;;-3.90;99.90;;;;;;2065495;28;20193;-67
2023/02/27 02:57:49;;;;;;;3.78;1.75;;;-3.90;99.90;;;;;;2065844;28;20197;-67
2023/02/27 02:59:17;;;;;;;4.18;2.08;;;-3.90;99.90;;;;;;2068197;28;20263;-67
2023/02/27 03:00:39;;;;;;;2.35;1.40;;;-3.90;99.90;;;;;;2064482;28;20589;-67
2023/02/27 03:01:50;;;;;;;3.25;1.63;;;-3.90;99.90;;;;;;2060393;28;20301;-67
2023/02/27 03:03:21;;;;;;;3.53;1.50;;;-3.90;99.90;;;;;;2062103;28;20702;-67
2023/02/27 03:04:34;;;;;;;3.50;1.30;;;-3.90;99.90;;;;;;2061786;28;20219;-68
2023/02/27 03:05:50;;;;;;;2.97;1.60;;;-3.90;99.90;;;;;;2068384;28;20201;-68
2023/02/27 03:07:22;;;;;;;1.98;1.70;;;-3.90;99.90;;;;;;2058105;28;20195;-67
2023/02/27 03:08:32;;;;;;;5.95;1.90;;;-3.80;99.90;;;;;;2059468;28;20194;-67
2023/02/27 03:09:54;;;;;;;1.95;1.70;;;-3.80;99.90;;;;;;2061721;28;20185;-67
2023/02/27 03:11:02;;;;;;;4.68;2.53;;;-3.80;99.90;;;;;;2068424;28;20188;-67
2023/02/27 03:12:12;;;;;;;1.90;1.70;;;-3.70;99.90;;;;;;2068025;28;20185;-67
2023/02/27 03:13:43;;;;;;;1.98;1.52;;;-3.70;99.90;;;;;;2058795;28;20685;-67
2023/02/27 03:15:33;;;;;;;2.15;1.80;;;-3.80;99.90;;;;;;2062833;28;20657;-67
2023/02/27 03:16:46;;;;;;;2.60;1.70;;;-3.70;99.90;;;;;;2069582;28;20210;-67
2023/02/27 03:18:07;;;;;;;5.22;1.95;;;-3.70;99.90;;;;;;2063887;28;20612;-67
2023/02/27 03:19:25;;;;;;;1.90;1.60;;;-3.70;99.90;;;;;;2068573;28;20302;-67
2023/02/27 03:20:36;;;;;;;1.90;1.50;;;-3.70;99.90;;;;;;2060690;28;20262;-67
2023/02/27 03:21:55;;;;;;;3.42;1.77;;;-3.70;99.90;;;;;;2053888;28;20237;-67
2023/02/27 03:23:09;;;;;;;3.15;1.85;;;-3.60;99.90;;;;;;2065359;28;20172;-67
2023/02/27 03:24:57;;;;;;;2.38;1.58;;;-3.60;99.90;;;;;;2068702;28;20271;-67
2023/02/27 03:26:05;;;;;;;2.47;1.83;;;-3.70;99.90;;;;;;2055112;28;20319;-67
2023/02/27 03:27:12;;;;;;;1.98;1.60;;;-3.70;99.90;;;;;;2040242;28;20204;-67
2023/02/27 03:28:26;;;;;;;2.28;1.70;;;-3.70;99.90;;;;;;2054263;28;20207;-67
2023/02/27 03:29:49;;;;;;;1.85;1.52;;;-3.70;99.90;;;;;;2065479;28;20259;-67
2023/02/27 03:31:07;;;;;;;2.40;1.85;;;-3.70;99.90;;;;;;2056912;28;20324;-67
2023/02/27 03:32:30;;;;;;;3.35;2.10;;;-3.70;99.90;;;;;;2054063;28;20214;-67
2023/02/27 03:33:44;;;;;;;2.47;1.60;;;-3.80;99.90;;;;;;2060052;28;20188;-67
2023/02/27 03:34:49;;;;;;;1.73;1.50;;;-3.80;99.90;;;;;;2054020;28;20241;-67
2023/02/27 03:36:27;;;;;;;3.05;1.90;;;-3.70;99.90;;;;;;2068685;28;20209;-67
2023/02/27 03:37:48;;;;;;;2.65;1.90;;;-3.60;99.90;;;;;;2056894;28;20181;-67
2023/02/27 03:39:06;;;;;;;4.55;1.80;;;-3.60;99.90;;;;;;2064761;28;20280;-67
2023/02/27 03:40:57;;;;;;;2.65;1.90;;;-3.50;99.90;;;;;;2056879;28;20240;-67
2023/02/27 03:42:45;;;;;;;1.63;1.48;;;-3.60;99.90;;;;;;2067414;28;20212;-67
2023/02/27 03:44:27;;;;;;;2.85;1.60;;;-3.50;99.90;;;;;;2064935;28;20227;-68
2023/02/27 03:45:44;;;;;;;2.65;1.98;;;-3.50;99.90;;;;;;2065107;28;20181;-67
2023/02/27 03:46:50;;;;;;;1.58;1.40;;;-3.50;99.90;;;;;;2061473;28;20221;-68
2023/02/27 03:47:56;;;;;;;2.50;1.95;;;-3.50;99.90;;;;;;2060373;28;20280;-67
2023/02/27 03:49:02;;;;;;;2.13;1.83;;;-3.50;99.90;;;;;;2054360;28;20194;-67
2023/02/27 03:50:05;;;;;;;2.47;1.90;;;-3.50;99.90;;;;;;2053982;28;20202;-67
2023/02/27 03:51:17;;;;;;;1.67;1.55;;;-3.50;99.90;;;;;;2061226;28;20993;-67
2023/02/27 03:52:24;;;;;;;2.33;1.92;;;-3.50;99.90;;;;;;2054223;28;20223;-67
2023/02/27 03:53:42;;;;;;;2.00;1.80;;;-3.50;99.90;;;;;;2047880;28;20725;-67
2023/02/27 03:55:31;;;;;;;3.05;1.90;;;-3.40;99.60;;;;;;2049186;28;20242;-67
2023/02/27 03:56:43;;;;;;;3.22;1.98;;;-3.40;98.70;;;;;;2057949;28;20221;-69
2023/02/27 03:57:50;;;;;;;2.33;1.88;;;-3.50;99.70;;;;;;2052347;28;20201;-68
2023/02/27 03:58:57;;;;;;;2.85;2.00;;;-3.50;99.90;;;;;;2058246;28;20185;-67
2023/02/27 04:00:05;;;;;;;2.95;2.03;;;-3.50;98.90;;;;;;2050419;28;20585;-66
2023/02/27 04:01:10;;;;;;;3.88;1.98;;;-3.50;99.60;;;;;;2057684;28;20332;-67
2023/02/27 04:02:16;;;;;;;2.45;1.52;;;-3.50;99.90;;;;;;2068030;28;20219;-67
2023/02/27 04:03:22;;;;;;;2.90;1.65;;;-3.60;99.30;;;;;;2069294;28;20199;-67
2023/02/27 04:04:34;;;;;;;3.33;1.80;;;-3.70;99.90;;;;;;2068972;28;20191;-67
2023/02/27 04:05:38;;;;;;;3.80;1.60;;;-3.70;99.90;;;;;;2056567;28;20220;-66
2023/02/27 04:09:02;;;;;;;2.63;1.80;;;-3.60;99.40;;;;;;2063901;28;20182;-67
2023/02/27 04:10:20;;;;;;;3.15;1.38;;;-3.50;99.20;;;;;;2066675;28;20987;-66
2023/02/27 04:12:12;;;;;;;2.85;1.63;;;-3.40;98.70;;;;;;2060924;28;20185;-66
2023/02/27 04:13:44;;;;;;;2.38;2.10;;;-3.50;98.50;;;;;;2064331;28;20279;-67
2023/02/27 04:15:13;;;;;;;2.15;1.77;;;-3.40;99.40;;;;;;2069916;28;20216;-67
2023/02/27 04:16:44;;;;;;;2.60;1.75;;;-3.50;99.10;;;;;;2063999;28;20242;-67
2023/02/27 04:18:37;;;;;;;2.75;1.73;;;-3.50;98.90;;;;;;2063261;28;20219;-66
2023/02/27 04:20:16;;;;;;;1.90;1.67;;;-3.50;98.70;;;;;;2066367;28;20195;-67
2023/02/27 04:22:04;;;;;;;1.60;1.33;;;-3.60;99.10;;;;;;2064695;28;20614;-67
2023/02/27 04:23:23;;;;;;;3.50;1.90;;;-3.50;98.70;;;;;;2067673;28;20287;-67
2023/02/27 04:24:28;;;;;;;1.73;1.50;;;-3.40;98.70;;;;;;2063751;28;20188;-68
2023/02/27 04:26:10;;;;;;;2.90;1.80;;;-3.50;98.40;;;;;;2064688;28;20566;-67
2023/02/27 04:27:36;;;;;;;2.03;1.83;;;-3.50;98.50;;;;;;2066990;28;20697;-66
2023/02/27 04:29:10;;;;;;;3.92;1.63;;;-3.50;98.50;;;;;;2047429;28;20572;-67
2023/02/27 04:30:49;;;;;;;2.28;1.42;;;-3.50;98.30;;;;;;2063553;28;20233;-67
2023/02/27 04:32:24;;;;;;;2.80;1.70;;;-3.50;97.80;;;;;;2058968;28;20189;-66
2023/02/27 04:34:00;;;;;;;1.95;1.70;;;-3.60;98.10;;;;;;2060776;28;20302;-67
2023/02/27 04:35:14;;;;;;;1.83;1.52;;;-3.60;98.70;;;;;;2063462;28;20992;-67
2023/02/27 04:36:31;;;;;;;2.47;1.90;;;-3.60;98.20;;;;;;2059187;28;20180;-67
2023/02/27 04:37:54;;;;;;;2.38;1.70;;;-3.60;98.80;;;;;;2068866;28;20186;-67
2023/02/27 04:39:33;;;;;;;2.13;1.70;;;-3.60;98.80;;;;;;2064436;28;20196;-67
2023/02/27 04:40:48;;;;;;;3.58;2.72;;;-3.60;99.10;;;;;;2064862;28;20226;-66
2023/02/27 04:41:59;;;;;;;3.05;2.10;;;-3.70;99.80;;;;;;2059838;28;20184;-68
2023/02/27 04:43:07;;;;;;;3.55;1.90;;;-3.80;99.90;;;;;;2059724;28;20194;-67
2023/02/27 04:44:11;;;;;;;2.35;1.90;;;-3.80;99.90;;;;;;2053759;28;20512;-66
2023/02/27 04:45:21;;;;;;;2.00;1.60;;;-3.90;99.90;;;;;;2061620;28;20191;-66
2023/02/27 04:46:29;;;;;;;2.47;1.92;;;-3.80;99.90;;;;;;2064591;28;20222;-67
2023/02/27 04:47:44;;;;;;;3.63;2.25;;;-3.70;99.90;;;;;;2068190;28;20183;-66
2023/02/27 04:49:40;;;;;;;3.70;2.22;;;-3.90;99.90;;;;;;2065105;28;20192;-66
2023/02/27 04:51:04;;;;;;;2.30;1.98;;;-4.00;99.90;;;;;;2057339;28;20345;-67
2023/02/27 04:52:18;;;;;;;3.80;2.20;;;-4.10;99.90;;;;;;2064464;28;20272;-66
2023/02/27 04:53:37;;;;;;;3.08;2.00;;;-4.10;99.90;;;;;;2056492;28;20289;-66
2023/02/27 04:54:58;;;;;;;2.22;1.83;;;-4.10;99.90;;;;;;2058286;28;20231;-67
2023/02/27 04:56:08;;;;;;;2.15;1.80;;;-4.10;99.90;;;;;;2062934;28;20704;-66
2023/02/27 04:57:17;;;;;;;3.75;2.10;;;-4.10;99.90;;;;;;2059486;28;20328;-67
2023/02/27 04:58:28;;;;;;;2.58;1.90;;;-4.00;99.90;;;;;;2061507;28;20200;-67
2023/02/27 04:59:40;;;;;;;6.07;2.10;;;-4.10;99.90;;;;;;2060156;28;20233;-66
2023/02/27 05:00:54;;;;;;;4.25;2.15;;;-4.10;99.90;;;;;;2067717;28;20211;-67
2023/02/27 05:02:11;;;;;;;3.65;2.10;;;-4.10;99.90;;;;;;2063833;28;20275;-66
2023/02/27 05:03:27;;;;;;;5.47;2.83;;;-4.10;99.90;;;;;;2066940;28;20681;-70
2023/02/27 05:04:37;;;;;;;4.32;2.60;;;-4.10;99.90;;;;;;2065844;28;20584;-66
2023/02/27 05:05:46;;;;;;;2.78;1.90;;;-4.00;99.90;;;;;;2062813;28;20183;-67
2023/02/27 05:06:54;;;;;;;4.45;2.05;;;-4.10;99.90;;;;;;2052746;28;20682;-67
2023/02/27 05:08:28;;;;;;;6.72;2.10;;;-4.20;99.90;;;;;;2055287;28;20183;-66
2023/02/27 05:09:48;;;;;;;3.33;2.40;;;-4.20;99.90;;;;;;2065542;28;20183;-66
2023/02/27 05:11:04;;;;;;;3.58;2.05;;;-4.10;99.90;;;;;;2068940;28;20258;-66
2023/02/27 05:12:45;;;;;;;2.22;2.03;;;-4.20;99.90;;;;;;2063880;28;20866;-66
2023/02/27 05:14:16;;;;;;;5.03;2.28;;;-4.20;99.90;;;;;;2053810;28;20202;-66
2023/02/27 05:15:34;;;;;;;4.50;2.70;;;-4.10;99.90;;;;;;2059501;28;20243;-67
2023/02/27 05:17:03;;;;;;;3.03;2.35;;;-4.30;99.90;;;;;;2068790;28;20195;-67
2023/02/27 05:18:08;;;;;;;4.50;2.40;;;-4.20;99.90;;;;;;2065662;28;20931;-66
2023/02/27 05:19:10;;;;;;;3.80;2.20;;;-4.20;99.90;;;;;;2068670;28;20206;-66
2023/02/27 05:20:16;;;;;;;7.32;2.33;;;-4.30;99.90;;;;;;2065603;28;20345;-66
2023/02/27 05:21:52;;;;;;;2.85;1.98;;;-4.30;99.90;;;;;;2068709;28;20182;-66
2023/02/27 05:23:08;;;;;;;3.63;1.90;;;-4.30;99.90;;;;;;2066131;28;20729;-67
2023/02/27 05:24:40;;;;;;;5.50;2.20;;;-4.30;99.90;;;;;;2069136;28;20186;-66
2023/02/27 05:26:04;;;;;;;2.47;2.00;;;-4.30;99.90;;;;;;2065695;28;20303;-66
2023/02/27 05:27:29;;;;;;;6.22;2.60;;;-4.40;99.90;;;;;;2064354;28;21058;-66
2023/02/27 05:29:04;;;;;;;3.08;2.20;;;-4.40;99.90;;;;;;2064180;28;20202;-66
2023/02/27 05:30:21;;;;;;;4.18;2.10;;;-4.40;99.90;;;;;;2065801;28;20335;-67
2023/02/27 05:32:03;;;;;;;4.30;1.88;;;-4.40;99.90;;;;;;2060685;28;20217;-67
2023/02/27 05:33:25;;;;;;;4.20;2.35;;;-4.40;99.90;;;;;;2065074;28;20187;-67
2023/02/27 05:34:48;;;;;;;3.17;2.35;;;-4.60;99.90;;;;;;2059768;28;20696;-66
2023/02/27 05:36:19;;;;;;;3.22;2.60;;;-4.60;99.90;;;;;;2064688;28;20188;-67
2023/02/27 05:37:34;;;;;;;3.63;2.10;;;-4.50;99.90;;;;;;2062135;28;20209;-66
2023/02/27 05:38:47;;;;;;;4.75;2.60;;;-4.50;99.90;;;;;;2060338;28;20198;-66
2023/02/27 05:39:53;;;;;;;4.22;3.15;;;-4.40;99.90;;;;;;2062428;28;20195;-67
2023/02/27 05:41:26;;;;;;;3.95;2.13;;;-4.50;99.90;;;;;;2068394;28;20696;-67
2023/02/27 05:42:39;;;;;;;4.28;2.28;;;-4.50;99.90;;;;;;2057228;28;20191;-67
2023/02/27 05:44:00;;;;;;;3.42;2.35;;;-4.40;99.90;;;;;;2054970;28;20212;-67
2023/02/27 05:45:16;;;;;;;3.25;2.20;;;-4.40;99.90;;;;;;2062083;28;20655;-66
2023/02/27 05:46:27;;;;;;;4.90;3.95;;;-4.40;99.90;;;;;;2062622;28;20192;-66
2023/02/27 05:47:31;;;;;;;4.10;3.28;;;-4.40;99.90;;;;;;2061993;28;20199;-67
2023/02/27 05:48:42;;;;;;;4.10;2.38;;;-4.40;99.90;;;;;;2060938;28;20223;-66
2023/02/27 05:50:11;;;;;;;4.55;2.90;;;-4.40;99.90;;;;;;2062203;28;20202;-67
2023/02/27 05:51:18;;;;;;;8.00;4.03;;;-4.40;99.90;;;;;;2061095;28;20303;-67
2023/02/27 05:52:25;;;;;;;3.85;3.05;;;-4.40;99.90;;;;;;2061809;28;20197;-67
2023/02/27 05:53:38;;;;;;;4.68;3.15;;;-4.30;99.90;;;;;;2061828;28;20193;-67
2023/02/27 05:55:00;;;;;;;7.22;3.92;;;-4.30;99.90;;;;;;2068838;28;20193;-67
2023/02/27 05:56:07;;;;;;;3.70;2.78;;;-4.50;99.90;;;;;;2061838;28;20191;-66
2023/02/27 05:57:17;;;;;;;8.00;3.72;;;-4.40;99.90;;;;;;2061632;28;20191;-67
2023/02/27 05:58:31;;;;;;;4.80;2.50;;;-4.50;99.90;;;;;;2061681;28;20230;-66
2023/02/27 05:59:58;;;;;;;4.90;2.90;;;-4.60;99.90;;;;;;2059159;28;20196;-66
2023/02/27 06:01:08;;;;;;;3.67;3.28;;;-4.60;99.90;;;;;;2068351;28;20188;-66
2023/02/27 06:02:10;;;;;;;5.80;3.13;;;-4.80;99.90;;;;;;2068295;28;20193;-67
2023/02/27 06:03:15;;;;;;;4.20;2.67;;;-4.80;99.90;;;;;;2060979;28;20183;-67
2023/02/27 06:04:20;;;;;;;3.28;2.70;;;-4.80;99.90;;;;;;2066261;28;20202;-66
2023/02/27 06:05:26;;;;;;;7.00;3.30;;;-4.80;99.90;;;;;;2072018;28;20186;-67
2023/02/27 06:06:31;;;;;;;3.95;2.67;;;-4.70;99.90;;;;;;2060729;28;20199;-66
2023/02/27 06:07:37;;;;;;;4.43;2.97;;;-4.80;99.90;;;;;;2060702;28;20212;-66
2023/02/27 06:08:38;;;;;;;3.97;2.92;;;-4.80;99.90;;;;;;2068413;28;20190;-66
2023/02/27 06:09:44;;;;;;;5.18;2.53;;;-4.80;99.90;;;;;;2069352;28;20177;-66
2023/02/27 06:10:48;;;;;;;4.55;3.38;;;-4.80;99.90;;;;;;2060137;28;20214;-67
2023/02/27 06:11:54;;;;;;;4.10;3.28;;;-4.80;99.90;;;;;;2060175;28;20310;-67
2023/02/27 06:13:00;;;;;;;4.30;2.92;;;-4.80;99.90;;;;;;2068436;28;20282;-66
2023/02/27 06:14:04;;;;;;;4.15;3.05;;;-4.70;99.90;;;;;;2068069;28;20194;-66
2023/02/27 06:15:10;;;;;;;4.70;2.90;;;-4.80;99.90;;;;;;2068186;28;20208;-66
2023/02/27 06:16:15;;;;;;;4.72;2.47;;;-4.90;99.90;;;;;;2061461;28;20194;-66
2023/02/27 06:17:21;;;;;;;4.80;2.90;;;-4.90;99.90;;;;;;2061910;28;20199;-67
2023/02/27 06:18:26;;;;;;;4.78;2.38;;;-5.00;99.90;;;;;;2068066;28;20216;-67
2023/02/27 06:19:32;;;;;;;5.20;3.50;;;-4.90;99.90;;;;;;2068937;28;20194;-66
2023/02/27 06:20:38;;;;;;;4.63;3.00;;;-5.00;99.90;;;;;;2068128;28;20836;-66
2023/02/27 06:21:43;;;;;;;3.72;2.78;;;-4.90;99.90;;;;;;2053316;28;20192;-66
2023/02/27 06:22:48;;;;;;;4.70;3.40;;;-5.00;99.90;;;;;;2061350;28;20182;-66
2023/02/27 06:23:54;;;;;;;5.00;2.83;;;-4.90;99.90;;;;;;2068569;28;20188;-66
2023/02/27 06:25:00;;;;;;;4.90;3.15;;;-4.90;99.90;;;;;;2068419;28;20194;-66
2023/02/27 06:26:04;;;;;;;4.18;2.92;;;-4.90;99.90;;;;;;2064675;28;21016;-67
2023/02/27 06:27:09;;;;;;;4.13;3.03;;;-5.00;99.90;;;;;;2068963;28;20182;-66
2023/02/27 06:28:15;;;;;;;4.85;2.58;;;-5.00;99.90;;;;;;2068092;28;20251;-66
2023/02/27 06:29:20;;;;;;;3.40;2.80;;;-5.10;99.90;;;;;;2065904;28;20698;-67